sensor_id;sensor_type;location;lat;lon;timestamp;temperature;humidity
24446;DHT22;13347;50.984;5.822;2023-03-20T00:00:14;9.50;1.00
24446;DHT22;13347;50.984;5.822;2023-03-20T00:02:43;9.60;1.00
24446;DHT22;13347;50.984;5.822;2023-03-20T00:05:17;9.60;1.00
24446;DHT22;13347;50.984;5.822;2023-03-20T00:07:46;9.50;1.00
24446;DHT22;13347;50.984;5.822;2023-03-20T00:10:14;9.50;1.00
24446;DHT22;13347;50.984;5.822;2023-03-20T00:12:41;9.40;1.00
24446;DHT22;13347;50.984;5.822;2023-03-20T00:18:05;9.40;1.00
24446;DHT22;13347;50.984;5.822;2023-03-20T00:20:37;9.30;1.00
24446;DHT22;13347;50.984;5.822;2023-03-20T00:23:04;9.30;1.00
24446;DHT22;13347;50.984;5.822;2023-03-20T00:25:31;9.40;1.00
24446;DHT22;13347;50.984;5.822;2023-03-20T00:27:58;9.40;1.00
24446;DHT22;13347;50.984;5.822;2023-03-20T00:30:26;9.40;1.00
24446;DHT22;13347;50.984;5.822;2023-03-20T00:32:54;9.50;1.00
24446;DHT22;13347;50.984;5.822;2023-03-20T00:35:24;9.40;1.00
24446;DHT22;13347;50.984;5.822;2023-03-20T00:37:52;9.40;1.00
24446;DHT22;13347;50.984;5.822;2023-03-20T00:40:19;9.40;1.00
24446;DHT22;13347;50.984;5.822;2023-03-20T00:42:47;9.20;1.00
24446;DHT22;13347;50.984;5.822;2023-03-20T00:45:15;9.10;1.00
24446;DHT22;13347;50.984;5.822;2023-03-20T00:47:43;8.90;1.00
24446;DHT22;13347;50.984;5.822;2023-03-20T00:50:14;8.80;1.00
24446;DHT22;13347;50.984;5.822;2023-03-20T00:52:43;8.60;1.00
24446;DHT22;13347;50.984;5.822;2023-03-20T00:55:10;8.60;1.00
24446;DHT22;13347;50.984;5.822;2023-03-20T00:57:38;8.50;53.60
24446;DHT22;13347;50.984;5.822;2023-03-20T01:00:07;8.60;99.90
24446;DHT22;13347;50.984;5.822;2023-03-20T01:02:34;8.50;99.90
24446;DHT22;13347;50.984;5.822;2023-03-20T01:05:01;8.40;99.90
24446;DHT22;13347;50.984;5.822;2023-03-20T01:07:30;8.30;99.90
24446;DHT22;13347;50.984;5.822;2023-03-20T01:09:58;8.20;99.90
24446;DHT22;13347;50.984;5.822;2023-03-20T01:12:25;8.20;1.00
24446;DHT22;13347;50.984;5.822;2023-03-20T01:14:53;8.10;1.00
24446;DHT22;13347;50.984;5.822;2023-03-20T01:17:21;8.00;1.00
24446;DHT22;13347;50.984;5.822;2023-03-20T01:19:49;7.80;1.00
24446;DHT22;13347;50.984;5.822;2023-03-20T01:22:16;7.80;1.00
24446;DHT22;13347;50.984;5.822;2023-03-20T01:24:43;7.90;1.00
24446;DHT22;13347;50.984;5.822;2023-03-20T01:27:12;7.80;1.00
24446;DHT22;13347;50.984;5.822;2023-03-20T01:29:40;7.70;1.00
24446;DHT22;13347;50.984;5.822;2023-03-20T01:32:08;7.70;1.00
24446;DHT22;13347;50.984;5.822;2023-03-20T01:34:35;7.80;1.00
24446;DHT22;13347;50.984;5.822;2023-03-20T01:37:02;7.60;5.30
24446;DHT22;13347;50.984;5.822;2023-03-20T01:39:30;7.40;99.90
24446;DHT22;13347;50.984;5.822;2023-03-20T01:41:58;7.40;1.00
24446;DHT22;13347;50.984;5.822;2023-03-20T01:44:27;7.40;1.00
24446;DHT22;13347;50.984;5.822;2023-03-20T01:46:54;7.50;1.00
24446;DHT22;13347;50.984;5.822;2023-03-20T01:52:07;7.70;25.50
24446;DHT22;13347;50.984;5.822;2023-03-20T01:54:34;7.60;18.90
24446;DHT22;13347;50.984;5.822;2023-03-20T01:57:02;7.50;99.90
24446;DHT22;13347;50.984;5.822;2023-03-20T01:59:32;7.40;1.00
24446;DHT22;13347;50.984;5.822;2023-03-20T02:02:00;7.40;1.00
24446;DHT22;13347;50.984;5.822;2023-03-20T02:04:29;7.40;99.90
24446;DHT22;13347;50.984;5.822;2023-03-20T02:06:57;7.40;99.90
24446;DHT22;13347;50.984;5.822;2023-03-20T02:09:24;7.40;99.90
24446;DHT22;13347;50.984;5.822;2023-03-20T02:11:51;7.20;1.00
24446;DHT22;13347;50.984;5.822;2023-03-20T02:14:19;7.10;1.00
24446;DHT22;13347;50.984;5.822;2023-03-20T02:16:48;7.00;1.00
24446;DHT22;13347;50.984;5.822;2023-03-20T02:19:16;7.10;1.00
24446;DHT22;13347;50.984;5.822;2023-03-20T02:24:45;7.20;1.00
24446;DHT22;13347;50.984;5.822;2023-03-20T02:27:17;7.10;1.00
24446;DHT22;13347;50.984;5.822;2023-03-20T02:32:43;7.10;1.00
24446;DHT22;13347;50.984;5.822;2023-03-20T02:38:16;6.90;1.00
24446;DHT22;13347;50.984;5.822;2023-03-20T02:40:47;6.90;1.00
24446;DHT22;13347;50.984;5.822;2023-03-20T02:43:17;6.90;1.00
24446;DHT22;13347;50.984;5.822;2023-03-20T02:45:47;6.80;1.00
24446;DHT22;13347;50.984;5.822;2023-03-20T02:48:17;6.70;14.60
24446;DHT22;13347;50.984;5.822;2023-03-20T02:50:48;6.50;38.20
24446;DHT22;13347;50.984;5.822;2023-03-20T02:53:25;6.50;95.30
24446;DHT22;13347;50.984;5.822;2023-03-20T02:55:54;6.70;99.90
24446;DHT22;13347;50.984;5.822;2023-03-20T02:58:25;6.80;99.90
24446;DHT22;13347;50.984;5.822;2023-03-20T03:00:55;6.70;99.90
24446;DHT22;13347;50.984;5.822;2023-03-20T03:03:26;6.70;99.90
24446;DHT22;13347;50.984;5.822;2023-03-20T03:05:54;6.80;99.90
24446;DHT22;13347;50.984;5.822;2023-03-20T03:08:26;6.70;99.90
24446;DHT22;13347;50.984;5.822;2023-03-20T03:10:56;6.70;99.90
24446;DHT22;13347;50.984;5.822;2023-03-20T03:13:26;6.80;99.90
24446;DHT22;13347;50.984;5.822;2023-03-20T03:15:54;6.80;99.90
24446;DHT22;13347;50.984;5.822;2023-03-20T03:18:23;6.70;99.90
24446;DHT22;13347;50.984;5.822;2023-03-20T03:20:53;6.70;99.90
24446;DHT22;13347;50.984;5.822;2023-03-20T03:23:22;6.60;99.90
24446;DHT22;13347;50.984;5.822;2023-03-20T03:25:52;6.70;99.90
24446;DHT22;13347;50.984;5.822;2023-03-20T03:28:22;6.70;99.90
24446;DHT22;13347;50.984;5.822;2023-03-20T03:30:51;6.70;99.90
24446;DHT22;13347;50.984;5.822;2023-03-20T03:33:20;6.70;99.90
24446;DHT22;13347;50.984;5.822;2023-03-20T03:35:47;6.60;99.90
24446;DHT22;13347;50.984;5.822;2023-03-20T03:38:20;6.60;99.90
24446;DHT22;13347;50.984;5.822;2023-03-20T03:40:49;6.50;99.90
24446;DHT22;13347;50.984;5.822;2023-03-20T03:43:21;6.50;99.90
24446;DHT22;13347;50.984;5.822;2023-03-20T03:45:52;6.50;99.90
24446;DHT22;13347;50.984;5.822;2023-03-20T03:48:22;6.40;99.90
24446;DHT22;13347;50.984;5.822;2023-03-20T03:50:52;6.40;99.90
24446;DHT22;13347;50.984;5.822;2023-03-20T03:53:21;6.40;99.90
24446;DHT22;13347;50.984;5.822;2023-03-20T03:55:49;6.40;99.90
24446;DHT22;13347;50.984;5.822;2023-03-20T03:58:18;6.40;99.90
24446;DHT22;13347;50.984;5.822;2023-03-20T04:00:48;6.40;99.90
24446;DHT22;13347;50.984;5.822;2023-03-20T04:03:16;6.40;99.90
24446;DHT22;13347;50.984;5.822;2023-03-20T04:05:47;6.40;99.90
24446;DHT22;13347;50.984;5.822;2023-03-20T04:08:15;6.50;99.90
24446;DHT22;13347;50.984;5.822;2023-03-20T04:10:42;6.50;99.90
24446;DHT22;13347;50.984;5.822;2023-03-20T04:13:09;6.50;99.90
24446;DHT22;13347;50.984;5.822;2023-03-20T04:15:36;6.50;99.90
24446;DHT22;13347;50.984;5.822;2023-03-20T04:18:05;6.40;99.90
24446;DHT22;13347;50.984;5.822;2023-03-20T04:20:32;6.40;99.90
24446;DHT22;13347;50.984;5.822;2023-03-20T04:22:59;6.50;99.90
24446;DHT22;13347;50.984;5.822;2023-03-20T04:25:26;6.50;99.90
24446;DHT22;13347;50.984;5.822;2023-03-20T04:27:53;6.60;96.90
24446;DHT22;13347;50.984;5.822;2023-03-20T04:30:20;6.60;62.30
24446;DHT22;13347;50.984;5.822;2023-03-20T04:32:47;6.70;14.80
24446;DHT22;13347;50.984;5.822;2023-03-20T04:35:15;6.80;1.00
24446;DHT22;13347;50.984;5.822;2023-03-20T04:37:42;6.90;1.00
24446;DHT22;13347;50.984;5.822;2023-03-20T04:40:09;6.90;1.00
24446;DHT22;13347;50.984;5.822;2023-03-20T04:42:37;6.80;1.00
24446;DHT22;13347;50.984;5.822;2023-03-20T04:45:05;6.70;1.00
24446;DHT22;13347;50.984;5.822;2023-03-20T04:47:32;6.70;1.00
24446;DHT22;13347;50.984;5.822;2023-03-20T04:49:59;6.70;1.00
24446;DHT22;13347;50.984;5.822;2023-03-20T04:52:27;6.70;1.00
24446;DHT22;13347;50.984;5.822;2023-03-20T04:54:54;6.70;1.00
24446;DHT22;13347;50.984;5.822;2023-03-20T04:57:21;6.60;1.00
24446;DHT22;13347;50.984;5.822;2023-03-20T04:59:48;6.70;1.00
24446;DHT22;13347;50.984;5.822;2023-03-20T05:02:15;6.80;1.00
24446;DHT22;13347;50.984;5.822;2023-03-20T05:04:42;6.90;1.00
24446;DHT22;13347;50.984;5.822;2023-03-20T05:07:09;6.90;1.00
24446;DHT22;13347;50.984;5.822;2023-03-20T05:09:37;7.00;1.00
24446;DHT22;13347;50.984;5.822;2023-03-20T05:12:05;7.00;1.00
24446;DHT22;13347;50.984;5.822;2023-03-20T05:14:32;7.10;1.00
24446;DHT22;13347;50.984;5.822;2023-03-20T05:16:58;7.00;1.00
24446;DHT22;13347;50.984;5.822;2023-03-20T05:19:25;6.90;1.00
24446;DHT22;13347;50.984;5.822;2023-03-20T05:21:52;6.90;1.00
24446;DHT22;13347;50.984;5.822;2023-03-20T05:24:19;6.80;1.00
24446;DHT22;13347;50.984;5.822;2023-03-20T05:26:48;6.80;1.00
24446;DHT22;13347;50.984;5.822;2023-03-20T05:29:15;6.70;1.00
24446;DHT22;13347;50.984;5.822;2023-03-20T05:31:42;6.70;1.00
24446;DHT22;13347;50.984;5.822;2023-03-20T05:34:09;6.80;1.00
24446;DHT22;13347;50.984;5.822;2023-03-20T05:36:36;7.00;1.00
24446;DHT22;13347;50.984;5.822;2023-03-20T05:39:04;7.00;1.00
24446;DHT22;13347;50.984;5.822;2023-03-20T05:41:31;7.10;1.00
24446;DHT22;13347;50.984;5.822;2023-03-20T05:43:59;7.10;99.90
24446;DHT22;13347;50.984;5.822;2023-03-20T05:46:26;7.20;99.90
24446;DHT22;13347;50.984;5.822;2023-03-20T05:48:53;7.20;99.90
24446;DHT22;13347;50.984;5.822;2023-03-20T05:51:20;7.20;99.90
24446;DHT22;13347;50.984;5.822;2023-03-20T05:53:47;7.20;99.90
24446;DHT22;13347;50.984;5.822;2023-03-20T05:56:14;7.20;99.90
24446;DHT22;13347;50.984;5.822;2023-03-20T05:58:41;7.20;16.80
24446;DHT22;13347;50.984;5.822;2023-03-20T06:01:09;7.20;1.00
24446;DHT22;13347;50.984;5.822;2023-03-20T06:03:36;7.20;1.00
24446;DHT22;13347;50.984;5.822;2023-03-20T06:06:03;7.20;1.00
24446;DHT22;13347;50.984;5.822;2023-03-20T06:08:30;7.20;1.00
24446;DHT22;13347;50.984;5.822;2023-03-20T06:10:57;7.20;1.00
24446;DHT22;13347;50.984;5.822;2023-03-20T06:13:25;7.20;1.00
24446;DHT22;13347;50.984;5.822;2023-03-20T06:15:52;7.30;1.00
24446;DHT22;13347;50.984;5.822;2023-03-20T06:18:20;7.30;1.00
24446;DHT22;13347;50.984;5.822;2023-03-20T06:20:50;7.30;1.00
24446;DHT22;13347;50.984;5.822;2023-03-20T06:23:17;7.30;1.00
24446;DHT22;13347;50.984;5.822;2023-03-20T06:25:45;7.40;1.00
24446;DHT22;13347;50.984;5.822;2023-03-20T06:28:12;7.30;99.90
24446;DHT22;13347;50.984;5.822;2023-03-20T06:30:39;7.30;1.00
24446;DHT22;13347;50.984;5.822;2023-03-20T22:53:04;11.10;1.00
24446;DHT22;13347;50.984;5.822;2023-03-20T22:55:31;11.10;1.00
24446;DHT22;13347;50.984;5.822;2023-03-20T22:57:58;11.10;1.00
24446;DHT22;13347;50.984;5.822;2023-03-20T23:00:25;11.10;1.00
24446;DHT22;13347;50.984;5.822;2023-03-20T23:02:53;11.10;1.00
24446;DHT22;13347;50.984;5.822;2023-03-20T23:05:20;11.10;1.00
24446;DHT22;13347;50.984;5.822;2023-03-20T23:07:47;11.00;1.00
24446;DHT22;13347;50.984;5.822;2023-03-20T23:10:15;11.00;1.00
24446;DHT22;13347;50.984;5.822;2023-03-20T23:12:42;11.10;1.00
24446;DHT22;13347;50.984;5.822;2023-03-20T23:15:09;11.10;1.00
24446;DHT22;13347;50.984;5.822;2023-03-20T23:17:36;11.00;1.00
24446;DHT22;13347;50.984;5.822;2023-03-20T23:20:04;11.00;1.00
24446;DHT22;13347;50.984;5.822;2023-03-20T23:22:31;11.00;1.00
24446;DHT22;13347;50.984;5.822;2023-03-20T23:24:58;11.00;1.00
24446;DHT22;13347;50.984;5.822;2023-03-20T23:27:26;11.00;1.00
24446;DHT22;13347;50.984;5.822;2023-03-20T23:29:53;10.90;1.00
24446;DHT22;13347;50.984;5.822;2023-03-20T23:32:20;10.90;1.00
24446;DHT22;13347;50.984;5.822;2023-03-20T23:34:47;10.90;1.00
24446;DHT22;13347;50.984;5.822;2023-03-20T23:37:15;10.90;1.00
24446;DHT22;13347;50.984;5.822;2023-03-20T23:39:41;10.90;1.00
24446;DHT22;13347;50.984;5.822;2023-03-20T23:42:08;10.90;1.00
24446;DHT22;13347;50.984;5.822;2023-03-20T23:44:37;10.90;1.00
24446;DHT22;13347;50.984;5.822;2023-03-20T23:47:04;10.80;1.00
24446;DHT22;13347;50.984;5.822;2023-03-20T23:49:31;10.80;1.00
24446;DHT22;13347;50.984;5.822;2023-03-20T23:51:58;10.80;1.00
24446;DHT22;13347;50.984;5.822;2023-03-20T23:54:25;10.80;1.00
24446;DHT22;13347;50.984;5.822;2023-03-20T23:56:52;10.80;1.00
24446;DHT22;13347;50.984;5.822;2023-03-20T23:59:19;10.80;1.00
